Řízení letového provozu České republiky
Letiste: LKTB Aktualizace: 28.09.2016 08:06:13  UTC
 METAR LKTB 28.09. 08:00 ...
METAR LKTB 280800Z 21003KT 170V250 CAVOK 13/08 Q1028 NOSIG RMK REG QNH 1024=
 TAF LKTB 28.09. 05:00 ...
TAF LKTB 280500Z 2806/2912 VRB02KT CAVOK      BECMG 2807/2809 21009KT=